Time;durP1;ratioP1;P1;durP2;ratioP2;P2;SDS_P1;SDS_P2;PMS_P1;PMS_P2;Temp;Humidity;BMP_temperature;BMP_pressure;BME280_temperature;BME280_humidity;BME280_pressure;Samples;Min_cycle;Max_cycle;Signal;HPM_P1;HPM_P2
2023/07/04 00:01:57;;;;;;;5.93;5.33;;;;;;;21.74;88.44;94843.97;4917537;29;20430;-83
2023/07/04 00:04:24;;;;;;;8.17;6.33;;;;;;;21.71;88.61;94853.19;4918456;29;20879;-83
2023/07/04 00:06:53;;;;;;;6.43;5.20;;;;;;;21.69;88.86;94849.91;4917411;29;20458;-83
2023/07/04 00:09:20;;;;;;;6.50;5.90;;;;;;;21.66;88.73;94850.28;4918052;29;20845;-84
2023/07/04 00:11:47;;;;;;;10.93;6.37;;;;;;;21.63;89.17;94856.84;4917858;29;20488;-83
2023/07/04 00:14:14;;;;;;;8.80;5.73;;;;;;;21.62;89.05;94854.38;4917697;29;20452;-84
2023/07/04 00:16:41;;;;;;;6.57;5.30;;;;;;;21.60;89.50;94853.75;4917558;29;20456;-83
2023/07/04 00:19:07;;;;;;;13.30;6.40;;;;;;;21.57;89.21;94841.63;4917814;29;20463;-84
2023/07/04 00:21:38;;;;;;;6.90;6.20;;;;;;;21.64;88.88;94853.16;4917561;29;20466;-83
2023/07/04 00:24:07;;;;;;;6.40;5.73;;;;;;;21.67;88.73;94851.09;4917695;29;20802;-84
2023/07/04 00:26:35;;;;;;;8.87;6.47;;;;;;;21.67;88.34;94840.41;4917144;29;20942;-84
2023/07/04 00:29:02;;;;;;;8.37;6.33;;;;;;;21.67;88.42;94843.09;4917034;29;21000;-83
2023/07/04 00:31:29;;;;;;;6.33;5.73;;;;;;;21.69;88.66;94849.09;4917101;29;20485;-84
2023/07/04 00:33:56;;;;;;;6.23;5.63;;;;;;;21.71;88.40;94863.88;4917564;29;20807;-85
2023/07/04 00:36:23;;;;;;;7.17;5.77;;;;;;;21.69;88.14;94854.44;4917014;29;21180;-84
2023/07/04 00:38:55;;;;;;;22.83;6.00;;;;;;;21.69;88.16;94854.44;4917366;29;20447;-83
2023/07/04 00:41:25;;;;;;;7.97;6.70;;;;;;;21.65;88.41;94857.47;4917190;29;20440;-84
2023/07/04 00:44:08;;;;;;;7.70;5.77;;;;;;;21.65;88.84;94854.78;4917275;29;20945;-84
2023/07/04 00:46:39;;;;;;;7.73;5.97;;;;;;;21.69;88.26;94854.44;4917153;29;20518;-83
2023/07/04 00:49:18;;;;;;;6.93;6.23;;;;;;;21.67;88.56;94857.25;4916993;29;20456;-84
2023/07/04 00:51:48;;;;;;;7.20;6.23;;;;;;;21.64;88.47;94850.47;4917130;29;20491;-84
2023/07/04 00:54:19;;;;;;;5.93;5.33;;;;;;;21.64;88.41;94855.00;4917204;29;20458;-84
2023/07/04 01:20:19;;;;;;;7.07;6.33;;;;;;;21.26;90.80;94862.63;4920386;29;20756;-84
2023/07/04 01:22:57;;;;;;;8.10;6.87;;;;;;;21.30;90.72;94871.88;4920299;29;20947;-84
2023/07/04 01:25:35;;;;;;;8.70;6.70;;;;;;;21.28;90.92;94868.56;4920359;29;20475;-84
2023/07/04 01:28:04;;;;;;;8.23;6.97;;;;;;;21.29;91.44;94864.88;4921175;29;20447;-84
2023/07/04 01:40:36;;;;;;;12.37;7.90;;;;;;;21.26;92.01;94859.94;4920173;29;20482;-84
2023/07/04 01:43:05;;;;;;;10.07;7.90;;;;;;;21.24;91.46;94862.00;4919989;29;20964;-84
2023/07/04 01:45:32;;;;;;;11.23;7.47;;;;;;;21.24;91.54;94851.31;4920178;29;20457;-84
2023/07/04 01:47:59;;;;;;;14.20;8.03;;;;;;;21.23;91.45;94849.63;4920071;29;20498;-85
2023/07/04 01:50:26;;;;;;;11.00;7.40;;;;;;;21.22;91.23;94854.16;4920060;29;20483;-83
2023/07/04 01:52:53;;;;;;;12.97;6.57;;;;;;;21.15;90.91;94847.94;4920179;29;20453;-84
2023/07/04 01:55:20;;;;;;;9.30;7.20;;;;;;;21.16;90.79;94857.59;4919740;29;20803;-83
2023/07/04 01:57:48;;;;;;;12.17;7.87;;;;;;;21.12;90.73;94853.69;4920846;29;20440;-84
2023/07/04 02:00:18;;;;;;;10.30;6.77;;;;;;;21.08;90.82;94856.91;4919663;29;20448;-84
2023/07/04 02:02:45;;;;;;;8.57;6.33;;;;;;;21.06;90.80;94850.94;4920214;29;20446;-84
2023/07/04 02:05:12;;;;;;;13.60;5.97;;;;;;;21.02;91.11;94858.53;4920117;29;21128;-84
2023/07/04 02:07:39;;;;;;;8.80;6.17;;;;;;;20.96;90.87;94859.31;4919887;29;20432;-84
2023/07/04 02:10:07;;;;;;;7.80;5.73;;;;;;;20.91;91.50;94854.56;4919694;29;20502;-84
2023/07/04 02:12:36;;;;;;;7.90;6.93;;;;;;;20.87;91.40;94855.97;4856043;29;20808;-84
2023/07/04 02:15:03;;;;;;;6.47;5.73;;;;;;;20.85;91.45;94858.00;4919714;29;20465;-84
2023/07/04 02:17:31;;;;;;;6.33;5.73;;;;;;;20.79;91.53;94848.09;4919952;29;20446;-83
2023/07/04 02:19:58;;;;;;;6.60;6.00;;;;;;;20.77;92.02;94849.31;4921514;29;20453;-83
2023/07/04 02:22:24;;;;;;;8.33;6.40;;;;;;;20.78;92.03;94846.44;4927303;29;20441;-84
2023/07/04 02:24:51;;;;;;;7.40;6.60;;;;;;;20.78;91.53;94857.09;4922789;29;20535;-83
2023/07/04 02:27:18;;;;;;;6.63;6.00;;;;;;;20.80;91.96;94855.06;4919362;29;20479;-84
2023/07/04 02:29:47;;;;;;;8.10;6.13;;;;;;;20.77;91.55;94852.78;4918786;29;20464;-84
2023/07/04 02:32:14;;;;;;;7.33;6.63;;;;;;;20.74;91.71;94858.53;4918534;29;20493;-84
2023/07/04 02:34:42;;;;;;;8.27;5.60;;;;;;;20.73;92.18;94856.88;4919035;29;20448;-83
2023/07/04 02:37:10;;;;;;;6.80;6.20;;;;;;;20.68;92.31;94856.63;4901831;29;20441;-84
2023/07/04 02:39:37;;;;;;;6.33;5.73;;;;;;;20.65;92.43;94857.03;4919334;29;20886;-84
2023/07/04 02:42:04;;;;;;;10.00;6.40;;;;;;;20.55;92.63;94844.03;4918982;29;20798;-84
2023/07/04 02:44:31;;;;;;;11.60;6.10;;;;;;;20.54;92.97;94852.22;4919331;29;20950;-83
2023/07/04 02:46:58;;;;;;;9.23;7.80;;;;;;;20.32;94.27;94860.19;4918507;29;20482;-84
2023/07/04 02:49:24;;;;;;;7.77;6.93;;;;;;;20.25;95.03;94861.97;4918483;29;20458;-84
2023/07/04 02:51:53;;;;;;;15.53;6.90;;;;;;;20.16;95.65;94852.44;4918359;29;20492;-84
2023/07/04 02:54:20;;;;;;;10.23;7.90;;;;;;;20.18;96.01;94847.72;4918851;29;20472;-83
2023/07/04 02:56:47;;;;;;;11.03;7.93;;;;;;;20.21;95.91;94855.34;4918973;29;20458;-83
2023/07/04 02:59:14;;;;;;;8.23;6.63;;;;;;;20.22;95.81;94849.00;4918821;29;20450;-84
2023/07/04 03:01:41;;;;;;;10.17;6.93;;;;;;;20.24;95.84;94860.31;4901393;29;20955;-83
2023/07/04 03:04:33;;;;;;;13.70;7.20;;;;;;;20.25;96.05;94853.97;4919545;29;20451;-84
2023/07/04 03:07:02;;;;;;;13.10;7.60;;;;;;;20.28;96.49;94856.25;4918563;29;20493;-84
2023/07/04 03:09:28;;;;;;;10.30;7.97;;;;;;;20.33;95.88;94853.00;4918893;29;20464;-84
2023/07/04 03:11:55;;;;;;;9.50;7.10;;;;;;;20.25;96.18;94853.97;4918431;29;20476;-83
2023/07/04 03:14:23;;;;;;;14.57;7.20;;;;;;;20.21;96.43;94851.84;4918649;29;20839;-84
2023/07/04 03:16:49;;;;;;;10.23;7.00;;;;;;;20.24;96.21;94857.66;4918767;29;20787;-82
2023/07/04 03:19:16;;;;;;;7.20;6.53;;;;;;;20.31;96.42;94855.03;4918569;29;20442;-85
2023/07/04 03:21:43;;;;;;;8.27;6.67;;;;;;;20.38;96.48;94855.94;4918528;29;20446;-84
2023/07/04 03:24:11;;;;;;;8.90;7.57;;;;;;;20.47;96.30;94856.66;4918355;29;20810;-85
2023/07/04 03:26:38;;;;;;;7.73;6.93;;;;;;;20.59;96.31;94863.13;4916981;29;20457;-85
2023/07/04 03:29:07;;;;;;;11.40;7.33;;;;;;;20.76;96.01;94853.81;4917873;29;20816;-85
2023/07/04 03:31:34;;;;;;;7.50;6.17;;;;;;;21.04;94.78;94848.47;4918424;29;20577;-84
2023/07/04 03:34:01;;;;;;;8.83;6.27;;;;;;;21.39;92.32;94860.00;4918461;29;20455;-84
2023/07/04 03:36:27;;;;;;;8.23;6.30;;;;;;;21.60;89.69;94862.59;4918033;29;20451;-84
2023/07/04 03:38:58;;;;;;;8.43;6.83;;;;;;;21.89;88.40;94860.66;4917985;29;20437;-84
2023/07/04 03:41:26;;;;;;;6.27;5.63;;;;;;;22.16;86.95;94862.41;4918125;29;20448;-85
2023/07/04 03:43:53;;;;;;;8.37;6.60;;;;;;;22.53;86.04;94870.91;4918416;29;20441;-84
2023/07/04 03:46:20;;;;;;;8.23;6.33;;;;;;;22.76;83.61;94871.34;4917995;29;20483;-84
2023/07/04 03:48:47;;;;;;;7.37;6.70;;;;;;;22.65;83.24;94874.63;4918440;29;20489;-84
2023/07/04 03:51:14;;;;;;;11.10;7.57;;;;;;;22.79;83.32;94867.41;4917739;29;20481;-84
2023/07/04 03:53:41;;;;;;;8.10;6.37;;;;;;;22.98;82.63;94872.00;4885337;29;20455;-84
2023/07/04 03:56:08;;;;;;;9.07;6.67;;;;;;;23.05;82.22;94877.34;4917011;29;20953;-84
2023/07/04 03:58:36;;;;;;;7.23;6.50;;;;;;;23.24;82.55;94884.53;4917790;29;20457;-84
2023/07/04 04:01:04;;;;;;;11.37;7.07;;;;;;;23.35;80.79;94878.53;4917737;29;20538;-84
2023/07/04 04:03:36;;;;;;;8.63;7.83;;;;;;;23.35;80.07;94878.53;4918315;29;20462;-83
2023/07/04 04:06:03;;;;;;;7.53;6.67;;;;;;;23.16;79.91;94874.88;4930323;29;20517;-84
2023/07/04 04:08:30;;;;;;;11.53;7.23;;;;;;;23.22;81.24;94877.75;4917813;29;20442;-84
2023/07/04 04:10:57;;;;;;;8.87;5.93;;;;;;;23.29;81.53;94875.88;4917774;29;20477;-83
2023/07/04 04:13:24;;;;;;;8.57;7.30;;;;;;;23.33;81.49;94872.56;4869083;29;20463;-83
2023/07/04 04:15:52;;;;;;;6.73;6.03;;;;;;;23.66;81.27;94875.19;4918080;29;20442;-83
2023/07/04 04:18:20;;;;;;;11.27;6.73;;;;;;;23.94;79.66;94885.59;4917616;29;20577;-83
2023/07/04 04:20:47;;;;;;;12.80;8.00;;;;;;;24.20;78.78;94891.88;4917588;29;20916;-84
2023/07/04 04:23:15;;;;;;;9.63;7.20;;;;;;;24.49;76.97;94896.69;4884358;29;20452;-83
2023/07/04 04:25:41;;;;;;;9.10;7.07;;;;;;;24.79;75.77;94893.41;4917913;29;20456;-83
2023/07/04 04:28:10;;;;;;;15.00;6.60;;;;;;;25.10;74.25;94888.03;4917136;29;20444;-83
2023/07/04 04:30:37;;;;;;;7.87;7.03;;;;;;;25.38;73.22;94894.78;4917515;29;20432;-83
2023/07/04 04:33:05;;;;;;;13.27;6.90;;;;;;;25.64;72.56;94900.72;4917503;29;20456;-83
2023/07/04 04:35:32;;;;;;;10.60;7.40;;;;;;;26.00;71.04;94904.50;4917028;29;20944;-83
2023/07/04 04:37:59;;;;;;;9.07;6.90;;;;;;;26.18;69.70;94900.97;4916689;29;20487;-83
2023/07/04 04:40:28;;;;;;;7.47;6.77;;;;;;;26.27;68.26;94905.00;4917590;29;20432;-80
2023/07/04 04:42:57;;;;;;;12.03;7.93;;;;;;;26.26;68.35;94914.09;4916851;29;20436;-80
2023/07/04 04:45:24;;;;;;;9.27;7.40;;;;;;;26.25;68.53;94907.91;4916792;29;20432;-80
2023/07/04 04:47:53;;;;;;;8.87;6.40;;;;;;;26.27;69.38;94905.00;4916463;29;20519;-80
2023/07/04 04:50:23;;;;;;;8.73;7.27;;;;;;;26.36;68.92;94911.75;4917200;29;20492;-81
2023/07/04 04:52:50;;;;;;;9.67;8.10;;;;;;;26.50;68.05;94910.50;4917842;29;20479;-79
2023/07/04 04:55:17;;;;;;;8.67;7.13;;;;;;;26.74;67.31;94915.97;4916664;29;20440;-79
2023/07/04 05:11:13;;;;;;;12.10;7.27;;;;;;;28.10;62.94;94920.34;4915826;29;21054;-80
2023/07/04 05:13:41;;;;;;;11.80;7.73;;;;;;;28.28;61.61;94922.91;4917097;29;20436;-81
2023/07/04 05:16:09;;;;;;;13.63;7.77;;;;;;;28.25;62.24;94917.97;4917486;29;20432;-81
2023/07/04 05:18:38;;;;;;;9.53;8.53;;;;;;;28.10;61.74;94912.25;4917172;29;20436;-81
2023/07/04 05:21:07;;;;;;;9.10;7.13;;;;;;;28.28;61.88;94916.69;4916939;29;20915;-81
2023/07/04 05:23:36;;;;;;;12.00;7.20;;;;;;;28.16;61.78;94914.00;4917096;29;20427;-80
2023/07/04 05:26:05;;;;;;;10.80;8.00;;;;;;;28.20;62.28;94917.03;4917087;29;20449;-80
2023/07/04 05:28:33;;;;;;;7.43;6.63;;;;;;;28.01;61.51;94916.34;4916898;29;20453;-86
2023/07/04 05:31:03;;;;;;;12.00;7.70;;;;;;;28.00;61.05;94910.13;4918083;29;20451;-82
2023/07/04 05:33:29;;;;;;;10.90;7.90;;;;;;;28.07;61.28;94912.72;4917136;29;20447;-82
2023/07/04 05:36:06;;;;;;;9.50;7.73;;;;;;;28.37;61.82;94910.69;4916680;29;20472;-82
2023/07/04 05:38:33;;;;;;;15.80;7.83;;;;;;;28.55;60.01;94912.34;4917726;29;20544;-83
2023/07/04 05:40:59;;;;;;;16.40;8.27;;;;;;;28.54;60.42;94909.91;4916817;29;20872;-83
2023/07/04 05:43:27;;;;;;;10.73;7.03;;;;;;;28.32;60.06;94909.72;4917617;29;20545;-85
2023/07/04 05:45:56;;;;;;;11.23;7.03;;;;;;;28.17;61.12;94914.81;4883903;29;20467;-87
2023/07/04 05:48:23;;;;;;;8.90;8.00;;;;;;;28.18;60.80;94906.47;4917362;29;20488;-86
2023/07/04 05:57:34;;;;;;;7.63;6.93;;;;;;;29.22;59.55;94909.00;4901330;29;20833;-88
2023/07/04 06:00:01;;;;;;;7.00;6.30;;;;;;;29.37;58.59;94906.53;4902113;29;20456;-88
2023/07/04 06:02:29;;;;;;;9.20;6.27;;;;;;;29.62;57.16;94913.41;4919520;29;20454;-82
2023/07/04 06:04:56;;;;;;;10.43;6.90;;;;;;;29.86;56.34;94904.03;4941151;29;20799;-82
2023/07/04 06:07:23;;;;;;;8.10;5.93;;;;;;;30.11;55.79;94893.59;4939886;29;20452;-83
2023/07/04 06:09:49;;;;;;;8.83;6.87;;;;;;;29.27;57.25;94887.44;4905499;29;20430;-83
2023/07/04 06:12:16;;;;;;;9.43;6.83;;;;;;;29.38;57.71;94894.63;4912155;29;20497;-83
2023/07/04 06:14:43;;;;;;;8.40;6.17;;;;;;;29.66;57.34;94887.50;4938770;29;20450;-83
2023/07/04 06:17:10;;;;;;;9.30;6.40;;;;;;;29.94;56.95;94898.19;4921100;29;20446;-83
2023/07/04 06:19:38;;;;;;;8.13;6.73;;;;;;;30.23;55.99;94895.34;4938783;29;20781;-83
2023/07/04 06:22:07;;;;;;;10.27;6.40;;;;;;;29.69;56.08;94895.94;4937861;29;20974;-83
2023/07/04 06:24:35;;;;;;;7.40;6.70;;;;;;;29.05;58.07;94889.25;4937269;29;20449;-83
2023/07/04 06:27:04;;;;;;;9.73;7.00;;;;;;;29.17;59.22;94885.38;4937145;29;20523;-83
2023/07/04 06:29:31;;;;;;;7.80;6.03;;;;;;;29.54;57.94;94882.22;4937062;29;20515;-83
2023/07/04 06:31:58;;;;;;;7.83;7.13;;;;;;;29.71;57.50;94880.28;4937231;29;20506;-83
2023/07/04 06:34:25;;;;;;;8.40;6.10;;;;;;;30.05;57.01;94888.34;4937224;29;20459;-83
2023/07/04 06:36:53;;;;;;;15.27;7.07;;;;;;;30.18;56.60;94890.69;4937367;29;20453;-83
2023/07/04 06:39:20;;;;;;;7.53;6.83;;;;;;;30.50;55.58;94893.50;4937052;29;20459;-83
2023/07/04 06:41:49;;;;;;;6.63;6.07;;;;;;;30.32;54.93;94893.81;4887948;29;20974;-83
2023/07/04 06:44:15;;;;;;;6.23;5.70;;;;;;;30.27;55.39;94889.16;4937066;29;20502;-85
2023/07/04 06:46:44;;;;;;;6.93;6.33;;;;;;;29.76;55.87;94880.34;4937355;29;20451;-83
2023/07/04 06:49:10;;;;;;;6.83;6.00;;;;;;;29.98;55.36;94877.66;4937111;29;20486;-83
2023/07/04 06:51:37;;;;;;;6.50;5.60;;;;;;;30.16;55.95;94885.53;4936611;29;20455;-83
2023/07/04 06:54:05;;;;;;;7.30;5.70;;;;;;;30.61;54.35;94889.03;4936990;29;20459;-83
2023/07/04 06:56:36;;;;;;;9.13;6.13;;;;;;;30.71;52.98;94886.44;4936574;29;20944;-83
2023/07/04 06:59:03;;;;;;;6.50;5.90;;;;;;;30.75;52.55;94887.56;4936970;29;20873;-83
2023/07/04 07:01:32;;;;;;;5.93;5.43;;;;;;;30.97;52.18;94887.50;4935999;29;20463;-83
2023/07/04 07:03:59;;;;;;;11.43;6.33;;;;;;;31.18;52.87;94883.91;4937057;29;20455;-84
2023/07/04 07:06:27;;;;;;;7.60;6.40;;;;;;;31.44;51.66;94882.22;4936285;29;20482;-83
2023/07/04 07:08:54;;;;;;;8.30;5.50;;;;;;;31.50;48.63;94892.03;4936443;29;20447;-83
2023/07/04 07:11:23;;;;;;;6.70;5.50;;;;;;;31.48;49.42;94886.03;4936284;29;20950;-84
2023/07/04 07:13:51;;;;;;;6.60;5.60;;;;;;;31.44;48.37;94887.63;4936213;29;20487;-83
2023/07/04 07:16:19;;;;;;;7.60;5.47;;;;;;;31.66;49.73;94888.34;4936380;29;20444;-84
2023/07/04 07:18:47;;;;;;;6.30;5.70;;;;;;;31.74;50.70;94876.19;4936401;29;20439;-83
2023/07/04 07:21:18;;;;;;;6.53;5.93;;;;;;;31.87;49.33;94883.91;4936244;29;20447;-84
2023/07/04 07:23:45;;;;;;;14.73;6.03;;;;;;;32.09;49.75;94880.19;4936038;29;20486;-84
2023/07/04 07:26:13;;;;;;;17.57;6.17;;;;;;;32.09;50.86;94886.44;4936397;29;20439;-83
2023/07/04 07:28:41;;;;;;;6.60;6.00;;;;;;;32.13;49.73;94882.13;4936419;29;20965;-83
2023/07/04 07:31:10;;;;;;;10.90;6.00;;;;;;;31.15;51.29;94889.81;4936285;29;20459;-83
2023/07/04 07:33:40;;;;;;;17.33;6.07;;;;;;;31.00;51.77;94881.56;4936318;29;20487;-83
2023/07/04 07:36:13;;;;;;;7.40;6.53;;;;;;;30.16;54.85;94877.41;4936159;29;20531;-83
2023/07/04 07:38:40;;;;;;;11.43;6.90;;;;;;;30.22;54.39;94880.97;4935967;29;20863;-83
2023/07/04 07:41:07;;;;;;;6.97;6.00;;;;;;;30.29;53.72;94880.78;4935795;29;20451;-83
2023/07/04 07:43:34;;;;;;;7.60;6.47;;;;;;;30.36;53.23;94881.41;4935771;29;20931;-83
2023/07/04 07:46:03;;;;;;;13.93;6.70;;;;;;;30.16;53.50;94882.00;4935767;29;20845;-84
2023/07/04 07:48:30;;;;;;;13.20;5.80;;;;;;;30.52;55.30;94891.34;4935740;29;20899;-83
2023/07/04 07:50:56;;;;;;;6.80;6.20;;;;;;;30.77;54.42;94896.25;4935646;29;20443;-83
2023/07/04 07:53:23;;;;;;;12.73;5.80;;;;;;;31.04;53.91;94891.63;4935563;29;20490;-83
2023/07/04 07:55:50;;;;;;;16.07;7.53;;;;;;;31.29;53.42;94893.78;4935361;29;20817;-83
2023/07/04 07:58:17;;;;;;;9.13;7.00;;;;;;;31.50;53.04;94894.72;4935962;29;20459;-83
2023/07/04 08:00:44;;;;;;;8.93;7.30;;;;;;;30.86;53.05;94891.19;4935727;29;20467;-83
2023/07/04 08:03:12;;;;;;;9.60;7.03;;;;;;;30.68;53.10;94886.97;4935702;29;20969;-83
2023/07/04 08:05:40;;;;;;;19.63;7.43;;;;;;;30.70;55.04;94891.03;4935297;29;20954;-83
2023/07/04 08:08:07;;;;;;;10.83;6.90;;;;;;;30.63;54.48;94890.41;4935448;29;20454;-83
2023/07/04 08:10:37;;;;;;;14.57;6.70;;;;;;;30.80;55.86;94893.84;4935171;29;20799;-83
2023/07/04 08:13:04;;;;;;;10.20;7.23;;;;;;;30.69;54.04;94888.59;4935180;29;20483;-83
2023/07/04 08:15:33;;;;;;;14.57;8.77;;;;;;;30.91;53.92;94896.66;4935340;29;20455;-83
2023/07/04 08:18:04;;;;;;;15.07;7.50;;;;;;;30.90;52.77;94900.44;4935438;29;20543;-83
2023/07/04 08:20:32;;;;;;;9.13;7.47;;;;;;;30.76;54.07;94892.72;4935561;29;20800;-83
2023/07/04 08:22:59;;;;;;;12.73;7.43;;;;;;;30.61;55.00;94886.31;4935327;29;20451;-83
2023/07/04 08:25:25;;;;;;;9.43;7.43;;;;;;;30.62;54.51;94883.34;4935477;29;20542;-83
2023/07/04 08:27:53;;;;;;;10.27;7.50;;;;;;;30.46;54.32;94885.06;4935344;29;20813;-83
2023/07/04 08:30:21;;;;;;;12.10;7.20;;;;;;;30.74;53.69;94884.03;4935471;29;20447;-84
2023/07/04 08:32:48;;;;;;;7.17;6.37;;;;;;;30.91;53.40;94878.50;4935227;29;20506;-83
2023/07/04 08:35:14;;;;;;;7.60;6.80;;;;;;;31.07;53.61;94879.47;4935030;29;20460;-83
2023/07/04 08:37:43;;;;;;;8.10;6.30;;;;;;;31.12;52.51;94883.03;4934886;29;20451;-83
2023/07/04 08:40:13;;;;;;;12.63;7.13;;;;;;;31.16;52.64;94871.66;4935535;29;20866;-83
2023/07/04 08:42:40;;;;;;;7.90;7.10;;;;;;;31.06;52.80;94873.22;4935426;29;20462;-83
2023/07/04 08:45:12;;;;;;;10.60;6.40;;;;;;;31.10;53.45;94874.34;4934830;29;20542;-83
2023/07/04 08:47:41;;;;;;;13.77;7.03;;;;;;;31.01;52.66;94870.47;4935141;29;20838;-83
2023/07/04 08:50:15;;;;;;;12.60;6.77;;;;;;;31.05;53.63;94865.34;4901715;29;20435;-83
2023/07/04 08:52:52;;;;;;;8.73;6.97;;;;;;;31.23;53.21;94872.31;4935239;29;20479;-83
2023/07/04 08:55:21;;;;;;;9.00;6.77;;;;;;;31.11;52.79;94867.84;4935012;29;20489;-83
2023/07/04 08:57:53;;;;;;;7.67;6.30;;;;;;;31.16;52.71;94867.09;4934475;29;20926;-83
2023/07/04 09:00:27;;;;;;;7.20;6.50;;;;;;;31.38;54.90;94872.41;4935119;29;20447;-83
2023/07/04 09:03:19;;;;;;;10.27;7.90;;;;;;;31.02;53.38;94868.56;4934799;29;20949;-83
2023/07/04 09:05:57;;;;;;;9.33;6.57;;;;;;;30.86;52.35;94864.91;4857494;29;20454;-83
2023/07/04 09:08:40;;;;;;;7.67;6.90;;;;;;;30.56;53.67;94868.09;4857488;29;20447;-83
2023/07/04 09:11:09;;;;;;;17.20;7.90;;;;;;;29.94;54.85;94859.47;4857729;29;20458;-82
2023/07/04 09:13:39;;;;;;;13.03;7.50;;;;;;;30.08;55.31;94852.66;4857501;29;20494;-83
2023/07/04 09:16:11;;;;;;;7.60;6.47;;;;;;;30.40;55.38;94850.88;4857361;29;20966;-83
2023/07/04 09:18:45;;;;;;;7.60;6.17;;;;;;;30.56;55.15;94857.25;4857176;29;20872;-83
2023/07/04 09:21:14;;;;;;;13.90;7.47;;;;;;;30.56;55.28;94857.25;4857590;29;20450;-83
2023/07/04 09:23:44;;;;;;;7.27;6.67;;;;;;;30.41;54.95;94849.00;4858561;29;20799;-83
2023/07/04 09:26:16;;;;;;;8.60;6.50;;;;;;;30.56;56.01;94851.84;4860927;29;20459;-83
2023/07/04 09:28:45;;;;;;;7.77;7.10;;;;;;;30.64;55.01;94853.28;4861225;29;20459;-83
2023/07/04 09:31:19;;;;;;;13.70;6.57;;;;;;;30.71;54.72;94849.31;4861094;29;20900;-83
2023/07/04 09:33:48;;;;;;;9.00;7.23;;;;;;;30.75;54.39;94845.03;4860846;29;20497;-83
2023/07/04 09:36:17;;;;;;;12.40;8.03;;;;;;;30.87;54.14;94846.75;4860845;29;20543;-84
2023/07/04 09:38:53;;;;;;;10.30;6.43;;;;;;;30.88;54.74;94842.97;4860819;29;20454;-83
2023/07/04 09:41:21;;;;;;;9.40;7.43;;;;;;;30.96;54.82;94845.22;4860522;29;20446;-84
2023/07/04 09:43:48;;;;;;;9.40;7.30;;;;;;;31.01;54.90;94845.25;4928778;29;20474;-84
2023/07/04 09:46:24;;;;;;;9.87;7.50;;;;;;;30.93;53.97;94835.69;4938208;29;20455;-83
2023/07/04 09:48:50;;;;;;;11.43;7.63;;;;;;;30.82;55.55;94840.22;4938038;29;20486;-83
2023/07/04 09:51:26;;;;;;;11.23;7.87;;;;;;;30.49;56.44;94835.78;4943704;29;20458;-83
2023/07/04 09:56:47;;;;;;;7.93;7.23;;;;;;;30.06;58.27;94825.00;5110547;27;20497;-83
2023/07/04 09:59:17;;;;;;;12.07;8.23;;;;;;;30.07;57.63;94827.50;5110089;28;20474;-83
2023/07/04 10:01:46;;;;;;;9.63;7.23;;;;;;;30.05;57.74;94826.09;5110168;28;20435;-83
2023/07/04 10:04:24;;;;;;;10.10;7.10;;;;;;;30.13;57.79;94821.06;5074182;28;20435;-83
2023/07/04 10:06:52;;;;;;;12.80;7.03;;;;;;;30.21;57.85;94822.50;5110252;28;20704;-83
2023/07/04 10:09:20;;;;;;;7.90;7.03;;;;;;;30.29;57.59;94818.50;5110204;28;20459;-83
2023/07/04 10:11:50;;;;;;;13.53;7.90;;;;;;;30.41;58.58;94817.31;5110567;28;20470;-83
2023/07/04 10:14:35;;;;;;;10.63;8.30;;;;;;;30.53;57.82;94815.25;5091034;28;20439;-83
2023/07/04 10:17:10;;;;;;;10.30;8.60;;;;;;;30.49;57.71;94813.31;5109899;28;20443;-83
2023/07/04 10:19:42;;;;;;;7.60;6.53;;;;;;;30.30;56.03;94812.03;5110147;28;20491;-83
2023/07/04 10:22:10;;;;;;;8.50;7.63;;;;;;;30.36;56.88;94809.13;5091296;28;20459;-83
2023/07/04 10:24:37;;;;;;;10.40;7.20;;;;;;;30.41;58.56;94811.88;5109945;28;20451;-83
2023/07/04 10:27:10;;;;;;;8.57;7.43;;;;;;;30.44;55.85;94805.97;5109545;28;20447;-82
2023/07/04 10:29:42;;;;;;;11.63;7.63;;;;;;;30.39;57.24;94814.03;5110141;28;20467;-83
2023/07/04 10:32:13;;;;;;;9.00;8.10;;;;;;;30.32;56.72;94809.88;5109777;28;20450;-83
2023/07/04 10:34:42;;;;;;;12.40;7.40;;;;;;;30.37;56.00;94799.13;5109536;28;20825;-83
2023/07/04 10:37:13;;;;;;;9.80;7.00;;;;;;;30.41;56.13;94794.81;5109229;28;20467;-83
2023/07/04 10:39:40;;;;;;;8.37;7.57;;;;;;;30.53;56.61;94798.19;5090989;28;20447;-84
2023/07/04 10:42:16;;;;;;;9.37;7.47;;;;;;;30.58;56.66;94798.22;5109626;28;20799;-83
2023/07/04 10:44:47;;;;;;;12.03;8.00;;;;;;;30.55;55.08;94801.44;5109360;28;20446;-83
2023/07/04 10:47:22;;;;;;;10.03;8.63;;;;;;;30.41;55.82;94797.53;5109390;28;20432;-83
2023/07/04 10:49:53;;;;;;;11.50;8.40;;;;;;;30.23;56.48;94793.28;5109304;28;20443;-83
2023/07/04 10:52:31;;;;;;;8.67;7.30;;;;;;;30.06;56.38;94790.66;5109105;28;20447;-83
2023/07/04 10:54:58;;;;;;;13.43;8.13;;;;;;;29.99;56.12;94781.88;5108580;28;20918;-83
2023/07/04 10:57:30;;;;;;;7.23;6.53;;;;;;;30.05;55.84;94786.31;5108934;28;20439;-83
2023/07/04 11:00:03;;;;;;;11.83;7.23;;;;;;;30.21;55.89;94774.59;5109210;28;20455;-83
2023/07/04 11:02:34;;;;;;;12.00;7.80;;;;;;;30.39;55.55;94769.91;5108712;28;20473;-83
2023/07/04 11:05:08;;;;;;;9.23;7.10;;;;;;;30.45;54.77;94775.09;5109328;28;20447;-83
2023/07/04 11:07:39;;;;;;;8.87;7.20;;;;;;;30.41;54.58;94768.56;5098564;28;20448;-83
2023/07/04 11:10:09;;;;;;;12.73;7.20;;;;;;;30.31;57.02;94760.31;5059590;28;20440;-83
2023/07/04 11:12:39;;;;;;;10.00;8.20;;;;;;;30.25;56.92;94768.66;5095031;28;20477;-83
2023/07/04 11:15:17;;;;;;;8.97;8.00;;;;;;;30.06;55.69;94769.00;5095081;28;20479;-83
2023/07/04 11:17:46;;;;;;;9.40;8.60;;;;;;;29.73;56.40;94761.81;5095423;28;20448;-83
2023/07/04 11:20:19;;;;;;;8.87;7.97;;;;;;;29.60;56.93;94765.72;5094821;28;20450;-83
2023/07/04 11:22:54;;;;;;;9.13;8.27;;;;;;;29.56;57.56;94756.50;5095174;28;20455;-83
2023/07/04 11:25:37;;;;;;;7.93;7.07;;;;;;;29.67;56.56;94767.44;5095078;28;20447;-83
2023/07/04 11:28:16;;;;;;;8.50;7.70;;;;;;;29.69;57.63;94749.88;5094908;28;20440;-83
2023/07/04 11:30:46;;;;;;;11.00;8.87;;;;;;;29.69;58.94;94754.47;5094938;28;20458;-83
2023/07/04 11:33:32;;;;;;;12.20;9.80;;;;;;;29.57;55.78;94755.44;5095077;28;20548;-83
2023/07/04 11:36:03;;;;;;;8.50;7.67;;;;;;;29.60;56.68;94746.00;5094774;28;20484;-83
2023/07/04 11:38:31;;;;;;;11.07;8.20;;;;;;;29.75;56.71;94748.84;5094825;28;20452;-83
2023/07/04 11:41:01;;;;;;;12.60;7.97;;;;;;;29.96;56.45;94741.78;5094881;28;20785;-83
2023/07/04 11:43:33;;;;;;;9.30;8.40;;;;;;;30.23;56.38;94743.72;5095079;28;20795;-83
2023/07/04 11:46:01;;;;;;;8.03;7.33;;;;;;;30.25;55.18;94738.88;5094606;28;20451;-83
2023/07/04 11:48:31;;;;;;;8.80;8.00;;;;;;;30.39;55.22;94737.41;5094546;28;20807;-84
2023/07/04 11:51:04;;;;;;;8.90;7.40;;;;;;;30.57;55.15;94737.00;5094714;28;20479;-83
2023/07/04 11:53:39;;;;;;;13.20;9.20;;;;;;;30.56;54.50;94740.78;5094753;28;20934;-83
2023/07/04 11:56:15;;;;;;;14.03;8.90;;;;;;;30.66;54.71;94732.78;5094486;28;20594;-83
2023/07/04 11:58:45;;;;;;;10.13;7.87;;;;;;;30.69;53.71;94732.28;5094033;28;20934;-83
2023/07/04 12:01:12;;;;;;;9.07;8.27;;;;;;;30.74;53.30;94743.13;5094263;28;20448;-83
2023/07/04 12:04:05;;;;;;;11.30;8.00;;;;;;;30.71;52.39;94735.53;5094579;28;20447;-83
2023/07/04 12:07:06;;;;;;;9.77;7.00;;;;;;;30.74;52.87;94735.00;5094368;28;20483;-83
2023/07/04 12:09:45;;;;;;;8.30;7.60;;;;;;;30.76;53.23;94732.84;5094215;28;20461;-84
2023/07/04 12:12:20;;;;;;;9.10;8.17;;;;;;;30.68;52.23;94730.63;5094190;28;20455;-83
2023/07/04 12:14:51;;;;;;;9.70;7.87;;;;;;;30.50;51.71;94736.41;5093937;28;20447;-83
2023/07/04 12:17:18;;;;;;;11.13;7.63;;;;;;;30.53;52.66;94731.28;5094223;28;20875;-84
2023/07/04 12:19:46;;;;;;;12.47;8.60;;;;;;;30.51;52.62;94725.31;5092706;28;20431;-83
2023/07/04 12:22:17;;;;;;;8.63;7.73;;;;;;;30.53;52.64;94725.06;5094021;28;20443;-83
2023/07/04 12:24:48;;;;;;;10.57;8.23;;;;;;;30.61;52.71;94723.78;5094015;28;20526;-83
2023/07/04 12:27:16;;;;;;;10.47;8.40;;;;;;;30.59;51.51;94729.44;5093768;28;20942;-83
2023/07/04 12:29:45;;;;;;;8.60;7.70;;;;;;;30.56;52.53;94721.81;5093783;28;20854;-83
2023/07/04 12:32:20;;;;;;;10.00;7.43;;;;;;;30.70;52.91;94711.41;5093534;28;20970;-83
2023/07/04 12:34:47;;;;;;;17.20;7.43;;;;;;;30.80;53.34;94709.59;5093553;28;20458;-83
2023/07/04 12:37:19;;;;;;;13.50;7.57;;;;;;;30.95;52.42;94719.72;5093555;28;20479;-83